CheckWX is a tool to help pilots better visualize weather data.  It is not intended as a substitute for an official pre-flight weather briefing.

04:31:04 UTC

DNIB METAR
Ibadan Airport
Ibadan, Nigeria
Current

9 hours ago

DNIB 172000Z 21010KT 2500 HZ NSC 30/23 Q1011
Observed
Feb-17 @ 20:00 UTC
Wind
  • 210° at 10 KTS
Visibility
2,494 meters
Flight Rules
IFR
Conditions
Haze
Cloud Levels
  • Clear skies
Temperature
30°C / 86°F
Dewpoint
23°C / 73°F
Humidity
66%
Altimeter
29.85" Hg
Pressure
1010.92 hPa
Previous

10 hours ago

DNIB 171900Z 22005KT 2500 HZ NSC 32/22 Q1010
Observed
Feb-17 @ 19:00 UTC
Wind
  • 220° at 5 KTS
Visibility
2,494 meters
Flight Rules
IFR
Conditions
Haze
Cloud Levels
  • Clear skies
Temperature
32°C / 90°F
Dewpoint
22°C / 72°F
Humidity
55%
Altimeter
29.82" Hg
Pressure
1009.92 hPa
Previous

18 hours ago

DNIB 171100Z 15004KT 5000 HZ NSC 32/22 Q1013
Observed
Feb-17 @ 11:00 UTC
Wind
  • 150° at 4 KTS
Visibility
5,005 meters
Flight Rules
MVFR
Conditions
Haze
Cloud Levels
  • Clear skies
Temperature
32°C / 90°F
Dewpoint
22°C / 72°F
Humidity
55%
Altimeter
29.91" Hg
Pressure
1012.92 hPa